Alma, Illinois
Current Conditions -  °F | °C
As of 5:15 AM on Friday 24 Oct 2014 (Local Time) from KSLO Reporting Station
Overcast Overcast  
Wind Chill: 53°   Ceiling: 5000
Heat Index: 53°   Visibility: 10mi
Dew Point: 49°   Wind: 3mph
Humidity: 89%   Direction: 190°S
Pressure: 30.1"   Gusts: NA
Location:  38.72°N, 88.91°W
Report Text: KSLO 241015Z AUTO 19003KT 10SM SCT032 BKN050 OVC075 12/10 A3010 RMK AO2 T01150097
Loading
Personal Weather Stations






























Interactive Weather Map
Tropical Storm Tracking
New forecast layout! Learn more

10-Day Weather Forecast

Advertisements
Track Severe Weather on mobile